createdAt,value
2022-08-03T00:02:20.162Z,61.55
2022-08-03T00:04:48.644Z,61.41
2022-08-03T00:07:17.214Z,61.64
2022-08-03T00:09:45.775Z,61.58
2022-08-03T00:12:14.560Z,61.54
2022-08-03T00:14:43.232Z,61.78
2022-08-03T00:17:12.980Z,61.91
2022-08-03T00:19:41.942Z,61.84
2022-08-03T00:22:10.370Z,61.73
2022-08-03T00:24:38.819Z,61.84
2022-08-03T00:27:07.200Z,61.82
2022-08-03T00:29:59.488Z,61.79
2022-08-03T00:32:24.832Z,61.75
2022-08-03T00:34:57.893Z,61.93
2022-08-03T00:37:41.357Z,61.88
2022-08-03T00:40:13.769Z,62.07
2022-08-03T00:42:50.486Z,62.19
2022-08-03T00:45:19.751Z,62.15
2022-08-03T00:47:48.494Z,62.26
2022-08-03T00:50:18.368Z,62.15
2022-08-03T00:52:47.466Z,62.20
2022-08-03T00:55:17.019Z,62.19
2022-08-03T00:57:46.328Z,62.42
2022-08-03T01:00:18.640Z,62.41
2022-08-03T01:02:47.357Z,62.61
2022-08-03T01:05:15.821Z,62.70
2022-08-03T01:07:59.437Z,62.64
2022-08-03T01:10:37.462Z,62.63
2022-08-03T01:14:03.537Z,62.58
2022-08-03T01:16:17.939Z,62.74
2022-08-03T01:18:52.898Z,62.79
2022-08-03T01:21:28.959Z,62.87
2022-08-03T01:24:06.950Z,62.85
2022-08-03T01:27:03.325Z,62.90
2022-08-03T01:30:01.567Z,63.09
2022-08-03T01:32:53.392Z,63.04
2022-08-03T01:35:38.425Z,63.01
2022-08-03T01:38:11.371Z,63.13
2022-08-03T01:40:41.854Z,63.12
2022-08-03T01:43:15.049Z,63.12
2022-08-03T01:46:04.320Z,63.01
2022-08-03T01:48:34.224Z,63.06
2022-08-03T01:51:03.118Z,63.08
2022-08-03T01:53:33.997Z,63.15
2022-08-03T01:56:05.603Z,63.11
2022-08-03T01:58:38.101Z,63.11
2022-08-03T02:01:09.750Z,63.03
2022-08-03T02:04:00.697Z,63.12
2022-08-03T02:06:59.814Z,63.18
2022-08-03T02:09:23.455Z,63.19
2022-08-03T02:11:53.184Z,63.33
2022-08-03T02:14:26.803Z,63.39
2022-08-03T02:16:57.291Z,63.32
2022-08-03T02:19:32.499Z,63.39
2022-08-03T02:22:06.064Z,63.45
2022-08-03T02:24:34.666Z,63.57
2022-08-03T02:27:06.759Z,63.61
2022-08-03T02:29:41.005Z,63.77
2022-08-03T02:32:14.990Z,63.80
2022-08-03T02:34:48.837Z,63.96
2022-08-03T02:37:19.966Z,63.93
2022-08-03T02:39:52.770Z,63.93
2022-08-03T02:42:24.157Z,63.98
2022-08-03T02:44:55.718Z,63.99
2022-08-03T02:47:26.745Z,64.08
2022-08-03T02:49:57.348Z,64.17
2022-08-03T02:52:32.623Z,64.25
2022-08-03T02:55:04.565Z,64.34
2022-08-03T02:57:35.908Z,64.32
2022-08-03T03:00:07.535Z,64.40
2022-08-03T03:02:36.928Z,64.39
2022-08-03T03:05:55.110Z,64.44
2022-08-03T03:07:57.165Z,64.62
2022-08-03T03:10:27.080Z,64.62
2022-08-03T03:12:58.235Z,64.60
2022-08-03T03:15:29.069Z,64.69
2022-08-03T03:17:59.167Z,64.76
2022-08-03T03:20:30.046Z,64.88
2022-08-03T03:23:01.293Z,64.93
2022-08-03T03:25:36.448Z,65.00
2022-08-03T03:28:06.376Z,65.13
2022-08-03T03:30:35.508Z,65.18
2022-08-03T03:33:04.727Z,65.20
2022-08-03T03:35:38.906Z,65.18
2022-08-03T03:38:08.843Z,65.33
2022-08-03T03:40:39.711Z,65.22
2022-08-03T03:43:11.177Z,65.37
2022-08-03T03:45:42.117Z,65.40
2022-08-03T03:48:11.319Z,65.35
2022-08-03T03:50:40.514Z,65.26
2022-08-03T03:53:11.583Z,65.27
2022-08-03T03:55:57.735Z,65.31
2022-08-03T03:58:29.286Z,65.43
2022-08-03T04:00:57.734Z,65.48
2022-08-03T04:03:26.407Z,65.54
2022-08-03T04:06:13.376Z,65.49
2022-08-03T04:09:00.061Z,65.42
2022-08-03T04:11:32.709Z,65.40
2022-08-03T04:14:07.452Z,65.19
2022-08-03T04:16:43.848Z,65.35
2022-08-03T04:19:22.948Z,65.05
2022-08-03T04:21:56.937Z,65.23
2022-08-03T04:24:29.890Z,65.42
2022-08-03T04:27:00.866Z,65.54
2022-08-03T04:29:33.194Z,65.35
2022-08-03T04:32:05.269Z,65.43
2022-08-03T04:34:33.866Z,65.58
2022-08-03T04:37:09.452Z,65.54
2022-08-03T04:39:42.489Z,65.88
2022-08-03T04:42:13.925Z,65.59
2022-08-03T04:44:45.319Z,64.97
2022-08-03T04:47:13.830Z,64.45
2022-08-03T04:49:42.675Z,64.32
2022-08-03T04:52:11.628Z,63.58
2022-08-03T04:54:45.927Z,63.19
2022-08-03T04:57:23.166Z,62.93
2022-08-03T04:59:56.835Z,62.78
2022-08-03T05:02:31.410Z,62.64
2022-08-03T05:05:00.321Z,62.64
2022-08-03T05:07:35.751Z,62.26
2022-08-03T05:10:15.743Z,62.09
2022-08-03T05:12:47.511Z,61.86
2022-08-03T05:15:17.436Z,61.90
2022-08-03T05:17:45.939Z,61.90
2022-08-03T05:20:16.580Z,61.89
2022-08-03T05:22:48.697Z,61.86
2022-08-03T05:25:19.820Z,61.89
2022-08-03T05:27:52.124Z,62.15
2022-08-03T05:30:31.500Z,62.41
2022-08-03T05:33:03.918Z,63.00
2022-08-03T05:35:57.624Z,63.30
2022-08-03T05:38:34.620Z,63.06
2022-08-03T05:41:22.000Z,62.13
2022-08-03T05:43:54.514Z,61.20
2022-08-03T05:46:23.602Z,60.85
2022-08-03T05:48:52.559Z,60.67
2022-08-03T05:51:24.069Z,60.54
2022-08-03T05:53:52.774Z,60.17
2022-08-03T05:56:24.591Z,60.06
2022-08-03T05:58:53.824Z,59.92
2022-08-03T06:01:22.710Z,59.78
2022-08-03T06:03:56.493Z,59.58
2022-08-03T06:06:28.238Z,59.62
2022-08-03T06:08:59.207Z,60.00
2022-08-03T06:11:27.787Z,60.31
2022-08-03T06:13:56.530Z,60.32
2022-08-03T06:16:25.141Z,59.67
2022-08-03T06:18:53.555Z,59.54
2022-08-03T06:21:25.080Z,59.36
2022-08-03T06:23:56.083Z,59.41
2022-08-03T06:26:28.132Z,58.73
2022-08-03T06:28:56.642Z,58.57
2022-08-03T06:31:33.383Z,58.41
2022-08-03T06:34:30.603Z,58.02
2022-08-03T06:37:01.740Z,57.74
2022-08-03T06:39:31.204Z,57.26
2022-08-03T06:41:59.925Z,57.32
2022-08-03T06:44:28.979Z,57.07
2022-08-03T06:46:58.124Z,57.07
2022-08-03T06:49:27.450Z,57.23
2022-08-03T06:52:04.147Z,57.28
2022-08-03T06:54:34.143Z,57.65
2022-08-03T06:57:03.011Z,57.67
2022-08-03T07:00:10.700Z,57.71
2022-08-03T07:02:20.430Z,58.05
2022-08-03T07:04:49.489Z,58.04
2022-08-03T07:07:20.064Z,58.34
2022-08-03T07:09:56.520Z,57.98
2022-08-03T07:12:27.543Z,58.05
2022-08-03T07:15:00.837Z,58.18
2022-08-03T07:17:35.817Z,57.95
2022-08-03T07:20:08.057Z,57.92
2022-08-03T07:22:36.881Z,57.51
2022-08-03T07:25:07.433Z,57.04
2022-08-03T07:27:36.554Z,56.57
2022-08-03T07:30:08.881Z,55.88
2022-08-03T07:32:50.157Z,55.02
2022-08-03T07:35:24.284Z,55.00
2022-08-03T07:37:54.423Z,54.64
2022-08-03T07:40:23.937Z,53.78
2022-08-03T07:42:58.573Z,52.54
2022-08-03T07:45:27.734Z,51.40
2022-08-03T07:47:56.493Z,51.02
2022-08-03T07:50:31.638Z,50.96
2022-08-03T07:53:00.228Z,50.80
2022-08-03T07:55:29.936Z,50.42
2022-08-03T07:58:07.036Z,50.14
2022-08-03T08:00:36.074Z,50.14
2022-08-03T08:03:05.108Z,50.03
2022-08-03T08:05:33.734Z,49.74
2022-08-03T08:08:02.713Z,49.85
2022-08-03T08:10:32.226Z,49.51
2022-08-03T08:13:01.606Z,48.98
2022-08-03T08:15:31.053Z,48.69
2022-08-03T08:18:01.890Z,48.05
2022-08-03T08:20:38.344Z,47.54
2022-08-03T08:23:31.923Z,47.05
2022-08-03T08:25:57.987Z,47.01
2022-08-03T08:28:32.114Z,46.73
2022-08-03T08:31:01.751Z,46.44
2022-08-03T08:33:48.303Z,46.06
2022-08-03T08:36:19.884Z,45.99
2022-08-03T08:38:49.989Z,45.39
2022-08-03T08:41:18.856Z,45.03
2022-08-03T08:43:47.492Z,43.19
2022-08-03T08:46:22.857Z,42.80
2022-08-03T08:49:04.778Z,42.34
2022-08-03T08:51:54.800Z,42.70
2022-08-03T08:54:27.334Z,42.28
2022-08-03T08:57:02.090Z,42.11
2022-08-03T08:59:47.617Z,41.85
2022-08-03T09:02:18.942Z,42.01
2022-08-03T09:04:49.067Z,41.64
2022-08-03T09:07:29.126Z,41.51
2022-08-03T09:10:11.709Z,41.57
2022-08-03T09:12:44.228Z,41.71
2022-08-03T09:15:21.728Z,41.10
2022-08-03T09:17:53.539Z,40.47
2022-08-03T09:20:24.930Z,40.44
2022-08-03T09:22:59.107Z,40.79
2022-08-03T09:25:33.480Z,40.81
2022-08-03T09:28:10.959Z,40.43
2022-08-03T09:30:42.074Z,40.29
2022-08-03T09:33:12.824Z,40.11
2022-08-03T09:35:54.013Z,39.59
2022-08-03T09:38:26.860Z,39.51
2022-08-03T09:41:00.029Z,39.40
2022-08-03T09:43:47.169Z,38.40
2022-08-03T09:46:15.661Z,38.06
2022-08-03T09:48:44.750Z,38.07
2022-08-03T09:51:32.881Z,38.29
2022-08-03T09:54:03.822Z,38.82
2022-08-03T09:56:46.446Z,38.59
2022-08-03T09:59:28.312Z,38.94
2022-08-03T10:01:59.301Z,39.11
2022-08-03T10:04:28.651Z,38.50
2022-08-03T10:07:05.538Z,38.35
2022-08-03T10:09:34.086Z,38.49
2022-08-03T10:12:10.992Z,38.46
2022-08-03T10:14:46.916Z,38.47
2022-08-03T10:17:16.591Z,38.78
2022-08-03T10:19:46.170Z,38.65
2022-08-03T10:22:16.488Z,39.11
2022-08-03T10:24:55.105Z,38.58
2022-08-03T10:27:31.782Z,38.55
2022-08-03T10:30:05.308Z,38.33
2022-08-03T10:32:38.547Z,38.52
2022-08-03T10:35:19.983Z,38.80
2022-08-03T10:38:00.432Z,38.41
2022-08-03T10:40:47.927Z,38.15
2022-08-03T10:43:22.304Z,38.41
2022-08-03T10:45:52.221Z,38.25
2022-08-03T10:48:21.996Z,37.94
2022-08-03T10:50:52.274Z,37.70
2022-08-03T10:53:36.465Z,38.09
2022-08-03T10:56:35.697Z,37.91
2022-08-03T10:59:14.636Z,37.27
2022-08-03T11:01:58.369Z,37.40
2022-08-03T11:04:30.747Z,37.27
2022-08-03T11:07:20.575Z,37.12
2022-08-03T11:09:51.420Z,36.51
2022-08-03T11:12:28.336Z,36.46
2022-08-03T11:15:04.100Z,36.56
2022-08-03T11:17:46.378Z,36.87
2022-08-03T11:20:47.821Z,37.05
2022-08-03T11:24:03.338Z,37.63
2022-08-03T11:26:26.957Z,37.93
2022-08-03T11:29:29.182Z,37.66
2022-08-03T11:31:58.387Z,37.64
2022-08-03T11:34:27.036Z,37.61
2022-08-03T11:37:21.392Z,37.48
2022-08-03T11:39:54.003Z,37.35
2022-08-03T11:42:47.739Z,37.03
2022-08-03T11:45:19.303Z,37.33
2022-08-03T11:47:53.891Z,37.39
2022-08-03T11:50:24.164Z,36.98
2022-08-03T11:52:54.437Z,36.83
2022-08-03T11:55:24.308Z,36.79
2022-08-03T11:59:19.066Z,37.26
2022-08-03T12:00:49.447Z,37.32
2022-08-03T12:03:20.828Z,37.53
2022-08-03T12:05:52.247Z,37.42
2022-08-03T12:08:31.732Z,37.72
2022-08-03T12:11:02.504Z,37.96
2022-08-03T12:14:43.924Z,37.79
2022-08-03T12:16:29.304Z,37.85
2022-08-03T12:19:00.374Z,38.18
2022-08-03T12:21:29.666Z,38.50
2022-08-03T12:23:59.644Z,38.97
2022-08-03T12:26:29.165Z,38.78
2022-08-03T12:28:59.397Z,38.69
2022-08-03T12:31:27.879Z,38.92
2022-08-03T12:33:59.486Z,39.00
2022-08-03T12:36:29.479Z,38.95
2022-08-03T12:38:59.834Z,38.89
2022-08-03T12:41:34.255Z,38.86
2022-08-03T12:44:03.607Z,38.83
2022-08-03T12:46:34.355Z,38.35
2022-08-03T12:49:08.446Z,38.52
2022-08-03T12:51:55.964Z,38.94
2022-08-03T12:54:26.169Z,38.92
2022-08-03T12:57:02.771Z,38.93
2022-08-03T12:59:35.194Z,39.11
2022-08-03T13:02:14.500Z,38.86
2022-08-03T13:04:45.334Z,38.99
2022-08-03T13:07:15.721Z,39.40
2022-08-03T13:09:47.606Z,39.40
2022-08-03T13:12:17.710Z,39.38
2022-08-03T13:14:47.816Z,39.36
2022-08-03T13:17:17.100Z,39.21
2022-08-03T13:19:47.251Z,39.22
2022-08-03T13:22:18.635Z,39.37
2022-08-03T13:24:48.994Z,39.34
2022-08-03T13:28:02.665Z,39.41
2022-08-03T13:30:10.168Z,39.14
2022-08-03T13:32:40.838Z,39.35
2022-08-03T13:35:10.511Z,39.58
2022-08-03T13:37:39.712Z,39.54
2022-08-03T13:40:11.574Z,39.54
2022-08-03T13:42:40.730Z,39.60
2022-08-03T13:45:18.820Z,39.58
2022-08-03T13:47:48.552Z,39.53
2022-08-03T13:50:18.756Z,39.39
2022-08-03T13:52:47.662Z,39.36
2022-08-03T13:55:16.137Z,39.73
2022-08-03T13:58:03.079Z,39.74
2022-08-03T14:00:34.106Z,39.45
2022-08-03T14:03:12.653Z,39.64
2022-08-03T14:05:43.531Z,39.94
2022-08-03T14:08:12.765Z,39.75
2022-08-03T14:10:44.383Z,39.47
2022-08-03T14:13:16.608Z,39.74
2022-08-03T14:15:50.309Z,39.80
2022-08-03T14:18:28.322Z,40.10
2022-08-03T14:21:03.388Z,39.98
2022-08-03T14:23:35.164Z,40.03
2022-08-03T14:26:04.598Z,39.79
2022-08-03T14:28:33.350Z,40.11
2022-08-03T14:31:02.788Z,40.30
2022-08-03T14:33:31.258Z,40.13
2022-08-03T14:36:00.403Z,40.13
2022-08-03T14:38:29.943Z,40.17
2022-08-03T14:40:59.650Z,40.22
2022-08-03T14:43:34.022Z,40.28
2022-08-03T14:46:02.923Z,40.09
2022-08-03T14:50:31.857Z,40.12
2022-08-03T14:51:20.130Z,40.21
2022-08-03T14:53:48.979Z,40.15
2022-08-03T14:56:17.937Z,40.06
2022-08-03T14:58:46.976Z,39.95
2022-08-03T15:02:04.628Z,39.91
2022-08-03T15:04:06.198Z,39.79
2022-08-03T15:06:34.743Z,39.55
2022-08-03T15:09:21.229Z,39.41
2022-08-03T15:11:52.443Z,39.73
2022-08-03T15:14:22.226Z,39.79
2022-08-03T15:16:57.608Z,39.95
2022-08-03T15:20:02.294Z,39.88
2022-08-03T15:22:16.685Z,39.81
2022-08-03T15:24:49.525Z,39.95
2022-08-03T15:27:18.112Z,39.96
2022-08-03T15:30:05.357Z,40.11
2022-08-03T15:32:40.150Z,40.18
2022-08-03T15:35:09.332Z,40.09
2022-08-03T15:37:37.792Z,40.05
2022-08-03T15:40:08.658Z,40.07
2022-08-03T15:42:37.318Z,40.25
2022-08-03T15:45:08.223Z,40.25
2022-08-03T15:47:37.033Z,40.11
2022-08-03T15:50:09.785Z,40.01
2022-08-03T15:52:46.102Z,39.91
2022-08-03T15:55:15.446Z,39.90
2022-08-03T15:59:04.324Z,39.80
2022-08-03T16:00:34.652Z,39.94
2022-08-03T16:03:03.302Z,40.15
2022-08-03T16:05:32.134Z,40.15
2022-08-03T16:08:06.224Z,40.21
2022-08-03T16:10:37.325Z,40.13
2022-08-03T16:13:06.264Z,40.45
2022-08-03T16:15:38.528Z,40.48
2022-08-03T16:18:07.632Z,40.45
2022-08-03T16:20:36.495Z,40.09
2022-08-03T16:23:11.257Z,40.29
2022-08-03T16:25:41.547Z,40.39
2022-08-03T16:28:14.631Z,40.52
2022-08-03T16:30:45.489Z,40.38
2022-08-03T16:33:17.407Z,40.35
2022-08-03T16:35:49.247Z,40.75
2022-08-03T16:38:19.344Z,40.54
2022-08-03T16:40:51.529Z,40.61
2022-08-03T16:43:21.944Z,40.62
2022-08-03T16:45:50.825Z,40.69
2022-08-03T16:48:20.458Z,40.57
2022-08-03T16:50:49.931Z,41.23
2022-08-03T16:53:33.106Z,41.39
2022-08-03T16:56:10.748Z,41.62
2022-08-03T16:58:44.167Z,41.51
2022-08-03T17:01:21.972Z,41.35
2022-08-03T17:04:02.756Z,41.39
2022-08-03T17:06:36.286Z,41.76
2022-08-03T17:09:09.072Z,41.58
2022-08-03T17:11:47.126Z,41.63
2022-08-03T17:14:22.077Z,41.76
2022-08-03T17:16:57.921Z,41.97
2022-08-03T17:19:29.073Z,42.12
2022-08-03T17:22:01.797Z,42.08
2022-08-03T17:24:35.535Z,42.17
2022-08-03T17:28:42.307Z,42.36
2022-08-03T17:30:09.249Z,42.56
2022-08-03T17:32:42.281Z,42.55
2022-08-03T17:35:12.710Z,42.76
2022-08-03T17:37:58.005Z,42.79
2022-08-03T17:40:33.924Z,42.96
2022-08-03T17:44:13.534Z,42.85
2022-08-03T17:45:54.637Z,43.03
2022-08-03T17:48:25.033Z,43.10
2022-08-03T17:51:04.724Z,43.02
2022-08-03T17:53:38.783Z,43.10
2022-08-03T17:56:38.838Z,43.42
2022-08-03T17:59:16.981Z,43.52
2022-08-03T18:02:47.518Z,43.73
2022-08-03T18:05:21.877Z,44.04
2022-08-03T18:07:59.166Z,43.82
2022-08-03T18:10:36.062Z,44.11
2022-08-03T18:13:10.509Z,44.30
2022-08-03T18:15:43.366Z,43.68
2022-08-03T18:18:16.846Z,43.57
2022-08-03T18:21:04.582Z,43.70
2022-08-03T18:23:37.691Z,43.88
2022-08-03T18:26:11.985Z,43.87
2022-08-03T18:28:45.145Z,44.14
2022-08-03T18:31:59.920Z,44.43
2022-08-03T18:34:19.854Z,44.37
2022-08-03T18:36:59.742Z,44.65
2022-08-03T18:39:30.654Z,44.68
2022-08-03T18:42:02.898Z,44.27
2022-08-03T18:47:52.873Z,45.01
2022-08-03T18:50:29.263Z,45.23
2022-08-03T18:53:16.643Z,45.16
2022-08-03T18:56:01.897Z,45.63
2022-08-03T18:58:40.928Z,45.69
2022-08-03T19:01:57.723Z,45.82
2022-08-03T19:04:13.251Z,45.96
2022-08-03T19:06:45.030Z,45.95
2022-08-03T19:09:27.848Z,46.23
2022-08-03T19:12:13.899Z,46.41
2022-08-03T19:14:56.394Z,46.56
2022-08-03T19:17:29.513Z,46.74
2022-08-03T19:20:01.645Z,47.07
2022-08-03T19:22:32.367Z,47.13
2022-08-03T19:25:02.132Z,47.40
2022-08-03T19:27:32.805Z,47.69
2022-08-03T19:30:11.899Z,47.62
2022-08-03T19:32:50.777Z,47.99
2022-08-03T19:35:46.676Z,48.05
2022-08-03T19:38:10.311Z,48.33
2022-08-03T19:40:44.823Z,48.52
2022-08-03T19:43:26.385Z,48.60
2022-08-03T19:46:15.009Z,48.84
2022-08-03T19:48:51.482Z,49.03
2022-08-03T19:51:26.490Z,49.18
2022-08-03T19:54:14.120Z,48.85
2022-08-03T19:56:47.417Z,48.78
2022-08-03T19:59:19.138Z,48.81
2022-08-03T20:01:50.659Z,49.10
2022-08-03T20:04:20.484Z,49.26
2022-08-03T20:06:52.268Z,49.14
2022-08-03T20:09:30.316Z,49.09
2022-08-03T20:12:00.798Z,49.09
2022-08-03T20:14:33.170Z,49.29
2022-08-03T20:17:01.910Z,49.64
2022-08-03T20:19:32.775Z,49.54
2022-08-03T20:22:08.416Z,49.94
2022-08-03T20:24:52.337Z,50.06
2022-08-03T20:27:24.246Z,50.45
2022-08-03T20:30:06.916Z,50.69
2022-08-03T20:32:37.176Z,50.84
2022-08-03T20:35:09.972Z,50.99
2022-08-03T20:37:40.772Z,51.02
2022-08-03T20:40:13.315Z,50.91
2022-08-03T20:42:43.211Z,51.12
2022-08-03T20:46:00.321Z,51.33
2022-08-03T20:48:02.143Z,51.69
2022-08-03T20:50:30.962Z,51.80
2022-08-03T20:53:08.054Z,51.99
2022-08-03T20:55:47.627Z,52.12
2022-08-03T20:58:35.326Z,52.36
2022-08-03T21:01:05.183Z,52.53
2022-08-03T21:03:40.812Z,52.59
2022-08-03T21:06:27.715Z,52.14
2022-08-03T21:09:12.643Z,52.08
2022-08-03T21:11:47.639Z,51.95
2022-08-03T21:13:04.956Z,44.55
2022-08-03T21:14:35.069Z,51.91
2022-08-03T21:17:25.016Z,51.78
2022-08-03T21:20:01.132Z,51.74
2022-08-03T21:22:32.890Z,51.75
2022-08-03T21:25:05.245Z,51.69
2022-08-03T21:27:34.392Z,51.83
2022-08-03T21:30:11.719Z,52.19
2022-08-03T21:32:44.855Z,52.40
2022-08-03T21:35:15.817Z,52.43
2022-08-03T21:37:46.746Z,52.30
2022-08-03T21:40:16.720Z,52.20
2022-08-03T21:42:47.037Z,52.06
2022-08-03T21:45:17.648Z,52.08
2022-08-03T21:47:47.812Z,52.06
2022-08-03T21:50:17.080Z,52.06
2022-08-03T21:52:48.939Z,52.08
2022-08-03T21:55:20.544Z,52.08
2022-08-03T21:57:53.915Z,52.08
2022-08-03T22:00:23.423Z,51.94
2022-08-03T22:02:55.240Z,52.00
2022-08-03T22:05:42.468Z,51.92
2022-08-03T22:08:13.568Z,51.84
2022-08-03T22:10:44.880Z,51.91
2022-08-03T22:13:14.852Z,51.72
2022-08-03T22:15:44.178Z,51.80
2022-08-03T22:18:12.671Z,51.55
2022-08-03T22:20:41.473Z,51.51
2022-08-03T22:23:11.146Z,51.51
2022-08-03T22:25:40.940Z,51.40
2022-08-03T22:28:12.488Z,51.36
2022-08-03T22:30:42.713Z,51.33
2022-08-03T22:33:14.428Z,51.24
2022-08-03T22:35:47.468Z,51.38
2022-08-03T22:38:18.488Z,51.26
2022-08-03T22:40:49.232Z,51.29
2022-08-03T22:43:21.874Z,51.40
2022-08-03T22:46:09.066Z,51.43
2022-08-03T22:48:41.196Z,51.37
2022-08-03T22:51:11.162Z,51.38
2022-08-03T22:53:40.477Z,51.22
2022-08-03T22:56:09.978Z,51.39
2022-08-03T22:58:38.664Z,51.31
2022-08-03T23:01:11.992Z,51.42
2022-08-03T23:04:00.749Z,51.54
2022-08-03T23:06:35.503Z,51.46
2022-08-03T23:09:07.661Z,51.65
2022-08-03T23:11:38.377Z,51.67
2022-08-03T23:14:15.908Z,51.66
2022-08-03T23:16:46.614Z,51.82
2022-08-03T23:19:25.365Z,51.84
2022-08-03T23:22:02.371Z,51.90
2022-08-03T23:24:36.513Z,52.04
2022-08-03T23:27:06.290Z,52.05
2022-08-03T23:29:37.447Z,52.18
2022-08-03T23:32:07.894Z,52.17
2022-08-03T23:34:58.260Z,52.43
2022-08-03T23:37:27.357Z,52.49
2022-08-03T23:39:57.226Z,52.53
2022-08-03T23:42:27.319Z,52.63
2022-08-03T23:44:59.505Z,52.63
2022-08-03T23:47:46.519Z,52.90
2022-08-03T23:50:17.378Z,52.90
2022-08-03T23:52:56.940Z,52.99
2022-08-03T23:55:40.394Z,52.81
2022-08-03T23:58:18.736Z,53.14
